Time;durP1;ratioP1;P1;durP2;ratioP2;P2;SDS_P1;SDS_P2;PMS_P1;PMS_P2;Temp;Humidity;BMP_temperature;BMP_pressure;BME280_temperature;BME280_humidity;BME280_pressure;Samples;Min_cycle;Max_cycle;Signal;HPM_P1;HPM_P2
2021/04/18 00:01:43;;;;;;;17.52;8.30;;;6.10;99.90;;;;;;4939621;28;20557;-66
2021/04/18 00:04:09;;;;;;;25.92;9.45;;;6.10;99.90;;;;;;4938945;28;20047;-66
2021/04/18 00:06:35;;;;;;;32.35;8.88;;;6.10;99.90;;;;;;4954178;28;20669;-65
2021/04/18 00:09:03;;;;;;;23.52;8.10;;;6.10;99.90;;;;;;4951039;28;20046;-63
2021/04/18 00:11:30;;;;;;;29.98;7.68;;;6.10;99.90;;;;;;4946224;28;20127;-66
2021/04/18 00:13:56;;;;;;;24.63;8.23;;;6.10;99.90;;;;;;4939376;28;20070;-63
2021/04/18 00:16:21;;;;;;;33.63;8.57;;;6.10;99.90;;;;;;4942195;28;20027;-65
2021/04/18 00:18:47;;;;;;;23.35;8.38;;;6.00;99.90;;;;;;4944913;28;20520;-65
2021/04/18 00:21:12;;;;;;;19.52;7.35;;;6.00;99.90;;;;;;4945177;28;20035;-64
2021/04/18 00:23:38;;;;;;;26.92;9.27;;;6.00;99.90;;;;;;4943378;28;20027;-65
2021/04/18 00:26:03;;;;;;;16.25;7.55;;;6.00;99.90;;;;;;4946636;28;20023;-65
2021/04/18 00:28:30;;;;;;;30.30;7.95;;;6.00;99.90;;;;;;4942672;28;20051;-66
2021/04/18 00:30:56;;;;;;;23.02;7.70;;;6.00;99.90;;;;;;4935700;28;20412;-67
2021/04/18 00:33:21;;;;;;;34.78;9.00;;;5.90;99.90;;;;;;4940785;28;20040;-65
2021/04/18 00:35:47;;;;;;;21.00;7.80;;;5.90;99.90;;;;;;4937539;28;20027;-66
2021/04/18 00:38:12;;;;;;;23.50;7.07;;;5.90;99.90;;;;;;4945310;28;20088;-66
2021/04/18 00:40:39;;;;;;;23.60;7.25;;;5.90;99.90;;;;;;4945518;28;20031;-65
2021/04/18 00:43:04;;;;;;;27.85;7.85;;;5.90;99.90;;;;;;4941133;28;20035;-67
2021/04/18 00:45:30;;;;;;;22.70;8.45;;;5.90;99.90;;;;;;4936588;28;20584;-65
2021/04/18 00:47:57;;;;;;;29.42;8.15;;;5.90;99.90;;;;;;4941023;28;20028;-66
2021/04/18 00:50:30;;;;;;;23.80;7.68;;;5.90;99.90;;;;;;4938673;28;20398;-68
2021/04/18 00:52:58;;;;;;;26.00;8.18;;;5.80;99.90;;;;;;4929125;28;20041;-66
2021/04/18 00:55:26;;;;;;;36.45;8.15;;;5.80;99.90;;;;;;4949636;28;20028;-67
2021/04/18 00:57:54;;;;;;;39.03;8.82;;;5.80;99.90;;;;;;4949709;28;20035;-65
2021/04/18 01:00:20;;;;;;;22.58;7.80;;;5.80;99.90;;;;;;4943850;28;20114;-66
2021/04/18 01:02:45;;;;;;;30.25;8.18;;;5.80;99.90;;;;;;5009235;28;20283;-66
2021/04/18 01:05:12;;;;;;;24.63;7.85;;;5.80;99.90;;;;;;4958645;28;20033;-64
2021/04/18 01:07:37;;;;;;;36.88;10.02;;;5.80;99.90;;;;;;4952629;28;20038;-64
2021/04/18 01:10:05;;;;;;;22.52;8.02;;;5.70;99.90;;;;;;4954783;28;20024;-66
2021/04/18 01:12:31;;;;;;;22.52;8.57;;;5.80;99.90;;;;;;4959778;28;20046;-65
2021/04/18 01:14:57;;;;;;;25.08;8.38;;;5.70;99.90;;;;;;4958732;28;20080;-65
2021/04/18 01:17:24;;;;;;;36.38;10.00;;;5.70;99.90;;;;;;4952240;28;20154;-64
2021/04/18 01:19:50;;;;;;;36.30;9.43;;;5.70;99.90;;;;;;4949622;28;20014;-65
2021/04/18 01:22:15;;;;;;;25.48;8.85;;;5.70;99.90;;;;;;4955318;28;20421;-66
2021/04/18 01:24:41;;;;;;;23.85;9.10;;;5.70;99.90;;;;;;4947629;28;20047;-65
2021/04/18 01:27:07;;;;;;;20.85;8.88;;;5.70;99.90;;;;;;4933529;28;20588;-65
2021/04/18 01:29:33;;;;;;;22.05;10.13;;;5.70;99.90;;;;;;4949034;28;20034;-65
2021/04/18 01:31:59;;;;;;;39.78;9.35;;;5.70;99.90;;;;;;4947745;28;20023;-66
2021/04/18 01:34:25;;;;;;;22.80;9.52;;;5.60;99.90;;;;;;4960187;28;20042;-66
2021/04/18 01:36:51;;;;;;;31.33;10.23;;;5.60;99.90;;;;;;4951650;28;20027;-65
2021/04/18 01:39:18;;;;;;;34.80;10.20;;;5.60;99.90;;;;;;4930483;28;20555;-65
2021/04/18 01:41:43;;;;;;;20.35;9.45;;;5.60;99.90;;;;;;4946302;28;20039;-65
2021/04/18 01:44:12;;;;;;;30.77;10.98;;;5.60;99.90;;;;;;4943445;28;20446;-64
2021/04/18 01:46:43;;;;;;;36.78;10.57;;;5.60;99.90;;;;;;4948836;28;20019;-65
2021/04/18 01:49:09;;;;;;;38.72;11.18;;;5.60;99.90;;;;;;4947394;28;20596;-65
2021/04/18 01:51:35;;;;;;;32.75;10.68;;;5.60;99.90;;;;;;4948921;28;20098;-64
2021/04/18 01:54:01;;;;;;;28.75;10.93;;;5.60;99.90;;;;;;4947608;28;20028;-66
2021/04/18 01:56:27;;;;;;;34.60;11.93;;;5.60;99.90;;;;;;4943723;28;20545;-66
2021/04/18 01:58:52;;;;;;;34.65;12.10;;;5.60;99.90;;;;;;4958035;28;20039;-65
2021/04/18 02:01:19;;;;;;;29.02;12.07;;;5.60;99.90;;;;;;4938153;28;20677;-65
2021/04/18 02:03:45;;;;;;;41.42;12.35;;;5.60;99.90;;;;;;4957960;28;20041;-65
2021/04/18 02:06:10;;;;;;;30.40;11.30;;;5.60;99.90;;;;;;4952159;28;20079;-65
2021/04/18 02:08:36;;;;;;;23.25;10.40;;;5.60;99.90;;;;;;4951974;28;20679;-66
2021/04/18 02:11:02;;;;;;;32.10;12.02;;;5.60;99.90;;;;;;4948953;28;20023;-66
2021/04/18 02:13:27;;;;;;;34.53;12.65;;;5.70;99.90;;;;;;4943177;28;20370;-66
2021/04/18 02:15:54;;;;;;;32.10;12.10;;;5.70;99.90;;;;;;4947834;28;20123;-66
2021/04/18 02:18:19;;;;;;;25.85;12.02;;;5.60;99.90;;;;;;4940084;28;20028;-66
2021/04/18 02:20:45;;;;;;;25.63;11.38;;;5.60;99.90;;;;;;4949683;28;20667;-67
2021/04/18 02:23:10;;;;;;;31.20;11.25;;;5.60;99.90;;;;;;4923986;28;20019;-66
2021/04/18 02:25:36;;;;;;;23.05;11.70;;;5.70;99.90;;;;;;4946714;28;20034;-66
2021/04/18 02:28:01;;;;;;;40.58;13.10;;;5.70;99.90;;;;;;4951595;28;20126;-66
2021/04/18 02:30:27;;;;;;;39.25;12.68;;;5.70;99.90;;;;;;4939123;28;20043;-67
2021/04/18 02:32:52;;;;;;;29.67;11.88;;;5.70;99.90;;;;;;4917594;28;20039;-65
2021/04/18 02:35:18;;;;;;;35.80;13.07;;;5.80;99.90;;;;;;4946685;28;20035;-65
2021/04/18 02:37:47;;;;;;;38.20;12.88;;;5.70;99.90;;;;;;4950636;28;20031;-66
2021/04/18 02:40:13;;;;;;;37.55;13.00;;;5.70;99.90;;;;;;4950560;28;20112;-66
2021/04/18 02:42:40;;;;;;;45.85;14.18;;;5.60;99.90;;;;;;4950470;28;20057;-66
2021/04/18 02:45:06;;;;;;;36.90;14.38;;;5.70;99.90;;;;;;4933725;28;20508;-66
2021/04/18 02:47:32;;;;;;;30.48;13.82;;;5.60;99.90;;;;;;4946544;28;20078;-65
2021/04/18 02:49:58;;;;;;;32.20;14.35;;;5.60;99.90;;;;;;4941511;28;20016;-67
2021/04/18 02:52:24;;;;;;;33.17;14.70;;;5.60;99.90;;;;;;4928151;28;20393;-66
2021/04/18 02:54:51;;;;;;;35.35;15.90;;;5.60;99.90;;;;;;4952071;28;20031;-66
2021/04/18 02:57:17;;;;;;;40.78;14.40;;;5.60;99.90;;;;;;4946941;28;20067;-65
2021/04/18 02:59:42;;;;;;;41.63;15.15;;;5.60;99.90;;;;;;4946432;28;20032;-66
2021/04/18 03:02:08;;;;;;;35.75;14.80;;;5.60;99.90;;;;;;4952225;28;20028;-66
2021/04/18 03:04:34;;;;;;;42.85;14.57;;;5.60;99.90;;;;;;4980370;28;20380;-65
2021/04/18 03:06:59;;;;;;;38.60;14.95;;;5.60;99.90;;;;;;4957130;28;20023;-65
2021/04/18 03:09:25;;;;;;;39.72;16.40;;;5.60;99.90;;;;;;4969743;28;20070;-64
2021/04/18 03:11:51;;;;;;;37.67;15.75;;;5.60;99.90;;;;;;4964643;28;20023;-65
2021/04/18 03:14:19;;;;;;;46.15;16.67;;;5.60;99.90;;;;;;4956616;28;20205;-65
2021/04/18 03:16:45;;;;;;;35.28;16.35;;;5.60;99.90;;;;;;4945752;28;20549;-66
2021/04/18 03:19:11;;;;;;;47.80;17.73;;;5.60;99.90;;;;;;4949795;28;20031;-66
2021/04/18 03:21:36;;;;;;;40.13;17.80;;;5.50;99.90;;;;;;4950720;28;20077;-65
2021/04/18 03:24:03;;;;;;;53.85;18.45;;;5.60;99.90;;;;;;4951791;28;20034;-67
2021/04/18 03:26:29;;;;;;;45.38;17.33;;;5.60;99.90;;;;;;4950750;28;20042;-67
2021/04/18 03:28:54;;;;;;;39.38;18.02;;;5.60;99.90;;;;;;4957390;28;20039;-66
2021/04/18 03:31:22;;;;;;;47.55;18.85;;;5.60;99.90;;;;;;4939343;28;20074;-67
2021/04/18 03:33:48;;;;;;;48.30;18.83;;;5.60;99.90;;;;;;4952541;28;20309;-65
2021/04/18 03:36:13;;;;;;;50.40;21.27;;;5.60;99.90;;;;;;4958655;28;20413;-66
2021/04/18 03:38:39;;;;;;;48.40;19.60;;;5.70;99.90;;;;;;4957778;28;20027;-67
2021/04/18 03:41:05;;;;;;;48.47;20.35;;;5.70;99.90;;;;;;4941863;28;20019;-65
2021/04/18 03:43:31;;;;;;;45.05;21.02;;;5.70;99.90;;;;;;4942620;28;20043;-65
2021/04/18 03:45:57;;;;;;;42.88;20.10;;;5.70;99.90;;;;;;4949461;28;20512;-65
2021/04/18 03:48:23;;;;;;;52.85;19.77;;;5.70;99.90;;;;;;4949281;28;20024;-65
2021/04/18 03:50:49;;;;;;;44.50;19.70;;;5.70;99.90;;;;;;4939908;28;20036;-66
2021/04/18 03:53:15;;;;;;;57.15;19.50;;;5.80;99.90;;;;;;4945347;28;20615;-65
2021/04/18 03:55:41;;;;;;;47.88;19.77;;;5.80;99.90;;;;;;4949925;28;20029;-65
2021/04/18 03:58:06;;;;;;;47.95;19.17;;;5.80;99.90;;;;;;4939300;28;20102;-69
2021/04/18 04:00:34;;;;;;;40.20;18.33;;;5.90;99.90;;;;;;4930375;28;20114;-65
2021/04/18 04:02:59;;;;;;;57.72;19.05;;;6.10;99.90;;;;;;4942350;28;20034;-66
2021/04/18 04:05:25;;;;;;;43.00;18.90;;;6.00;99.90;;;;;;4948713;28;20019;-65
2021/04/18 04:07:51;;;;;;;44.35;18.55;;;6.00;99.90;;;;;;4939609;28;20020;-65
2021/04/18 04:10:16;;;;;;;46.95;18.90;;;5.90;99.90;;;;;;4944124;28;20020;-65
2021/04/18 04:12:42;;;;;;;53.33;20.38;;;6.00;99.90;;;;;;4932024;28;20141;-65
2021/04/18 04:15:07;;;;;;;36.30;19.30;;;6.00;99.90;;;;;;4948455;28;20053;-66
2021/04/18 04:17:33;;;;;;;38.15;18.58;;;6.00;99.90;;;;;;4949812;28;20077;-65
2021/04/18 04:19:59;;;;;;;48.22;19.25;;;6.00;99.90;;;;;;4949034;28;20028;-65
2021/04/18 04:22:24;;;;;;;47.03;19.73;;;6.00;99.90;;;;;;4946856;28;20027;-66
2021/04/18 04:24:54;;;;;;;48.90;19.48;;;6.00;99.90;;;;;;4924664;28;20027;-66
2021/04/18 04:27:20;;;;;;;47.45;18.33;;;6.10;99.90;;;;;;4948083;28;20105;-67
2021/04/18 04:29:50;;;;;;;52.85;18.83;;;6.00;99.90;;;;;;4931431;28;20028;-66
2021/04/18 04:32:16;;;;;;;51.45;19.10;;;6.00;99.90;;;;;;4927289;28;20042;-66
2021/04/18 04:34:41;;;;;;;43.72;19.33;;;6.00;99.90;;;;;;4931561;28;20406;-66
2021/04/18 04:37:07;;;;;;;43.65;18.73;;;6.00;99.90;;;;;;4949296;28;20540;-66
2021/04/18 04:39:33;;;;;;;44.75;19.50;;;5.90;99.90;;;;;;4947783;28;20023;-66
2021/04/18 04:41:58;;;;;;;42.75;19.05;;;5.80;99.90;;;;;;4948734;28;20038;-65
2021/04/18 04:44:24;;;;;;;49.50;18.60;;;5.90;99.90;;;;;;4948913;28;20027;-66
2021/04/18 04:46:49;;;;;;;46.50;20.45;;;5.90;99.90;;;;;;4946743;28;20410;-66
2021/04/18 04:49:15;;;;;;;44.53;18.75;;;5.90;99.90;;;;;;4952299;28;20030;-66
2021/04/18 04:51:40;;;;;;;43.55;18.00;;;6.00;99.90;;;;;;4947682;28;20032;-65
2021/04/18 04:54:06;;;;;;;42.15;17.42;;;6.10;99.90;;;;;;4950325;28;20051;-65
2021/04/18 04:56:32;;;;;;;35.03;16.50;;;6.10;99.90;;;;;;4951970;28;20081;-66
2021/04/18 04:58:58;;;;;;;38.97;16.70;;;6.20;99.90;;;;;;4945952;28;20028;-66
2021/04/18 05:01:23;;;;;;;38.72;16.48;;;6.10;99.90;;;;;;4949774;28;20359;-66
2021/04/18 05:03:49;;;;;;;34.42;16.25;;;6.20;99.90;;;;;;4942969;28;20046;-66
2021/04/18 05:06:15;;;;;;;34.15;16.38;;;6.20;99.90;;;;;;4948750;28;20030;-66
2021/04/18 05:08:40;;;;;;;39.95;17.58;;;6.20;99.90;;;;;;4958333;28;20038;-67
2021/04/18 05:11:06;;;;;;;41.63;18.05;;;6.20;99.90;;;;;;4948269;28;20031;-65
2021/04/18 05:13:33;;;;;;;35.60;16.15;;;6.20;99.90;;;;;;4945739;28;20063;-65
2021/04/18 05:15:58;;;;;;;38.80;17.10;;;6.30;99.90;;;;;;4949235;28;20105;-66
2021/04/18 05:18:24;;;;;;;48.72;17.65;;;6.30;99.90;;;;;;4949907;28;20432;-67
2021/04/18 05:20:51;;;;;;;35.65;15.93;;;6.40;99.90;;;;;;4948233;28;20031;-67
2021/04/18 05:23:16;;;;;;;33.97;15.02;;;6.40;99.90;;;;;;4949098;28;20404;-66
2021/04/18 05:25:42;;;;;;;37.47;15.65;;;6.50;99.90;;;;;;4932067;28;20015;-65
2021/04/18 05:28:07;;;;;;;32.28;16.52;;;6.50;99.90;;;;;;4950034;28;20016;-66
2021/04/18 05:30:33;;;;;;;43.88;15.25;;;6.40;99.90;;;;;;4952581;28;20034;-67
2021/04/18 05:32:59;;;;;;;38.00;15.98;;;6.40;99.90;;;;;;4940665;28;20497;-68
2021/04/18 05:35:24;;;;;;;40.63;15.85;;;6.40;99.90;;;;;;4942514;28;20028;-67
2021/04/18 05:37:50;;;;;;;44.00;15.73;;;6.30;99.90;;;;;;4946444;28;20062;-66
2021/04/18 05:40:16;;;;;;;45.38;16.92;;;6.40;99.90;;;;;;4940367;28;20439;-66
2021/04/18 05:42:42;;;;;;;43.83;16.00;;;6.40;99.90;;;;;;4964856;22;20085;-71
2021/04/18 05:45:09;;;;;;;35.95;14.80;;;6.40;99.90;;;;;;4976117;28;20272;-69
2021/04/18 05:47:35;;;;;;;32.50;17.13;;;6.40;99.90;;;;;;4950190;28;20481;-69
2021/04/18 05:50:01;;;;;;;34.20;15.63;;;6.40;99.90;;;;;;4942183;28;20024;-70
2021/04/18 05:52:26;;;;;;;43.40;15.93;;;6.40;99.90;;;;;;4938994;28;20115;-71
2021/04/18 05:54:52;;;;;;;37.72;16.52;;;6.30;99.90;;;;;;4942566;28;20118;-69
2021/04/18 05:57:19;;;;;;;42.42;16.17;;;6.30;99.90;;;;;;4937458;28;20059;-70
2021/04/18 05:59:44;;;;;;;31.52;15.38;;;6.30;99.90;;;;;;4932653;28;20020;-69
2021/04/18 06:02:10;;;;;;;41.55;15.38;;;6.50;99.90;;;;;;4935667;28;20038;-70
2021/04/18 06:04:36;;;;;;;35.75;13.52;;;6.50;99.90;;;;;;4941944;28;20020;-72
2021/04/18 06:07:03;;;;;;;36.15;14.32;;;6.60;99.90;;;;;;4930857;28;20023;-68
2021/04/18 06:09:29;;;;;;;36.35;15.48;;;6.90;99.90;;;;;;4933179;28;20020;-70
2021/04/18 06:11:55;;;;;;;40.88;16.95;;;7.00;99.90;;;;;;4933562;28;20401;-69
2021/04/18 06:14:20;;;;;;;38.60;16.15;;;6.90;99.90;;;;;;4933092;28;20401;-69
2021/04/18 06:16:46;;;;;;;39.83;14.93;;;6.70;99.90;;;;;;4941637;28;20452;-69
2021/04/18 06:19:12;;;;;;;38.05;15.55;;;6.70;99.90;;;;;;4933705;28;20106;-70
2021/04/18 06:21:37;;;;;;;42.20;15.85;;;6.70;99.90;;;;;;4938562;28;20474;-68
2021/04/18 06:24:03;;;;;;;33.75;15.18;;;6.80;99.90;;;;;;4934938;28;20040;-69
2021/04/18 06:26:29;;;;;;;40.05;16.52;;;6.90;99.90;;;;;;4938030;28;20024;-68
2021/04/18 06:28:54;;;;;;;30.95;14.98;;;7.00;99.90;;;;;;4921195;28;20212;-69
2021/04/18 06:31:20;;;;;;;46.85;15.57;;;7.00;99.90;;;;;;4934426;28;20067;-69
2021/04/18 06:33:46;;;;;;;35.50;15.02;;;7.00;99.90;;;;;;4934989;28;20062;-69
2021/04/18 06:36:12;;;;;;;42.03;15.82;;;7.20;99.90;;;;;;4937170;28;20028;-71
2021/04/18 06:38:37;;;;;;;30.08;14.63;;;7.30;99.90;;;;;;4944546;28;20085;-72
2021/04/18 06:41:03;;;;;;;29.63;14.82;;;7.30;99.90;;;;;;4941364;28;20039;-69
2021/04/18 06:43:29;;;;;;;26.58;13.18;;;7.40;99.90;;;;;;4926304;28;20019;-69
2021/04/18 06:45:55;;;;;;;23.27;13.85;;;7.40;99.90;;;;;;4933968;28;20034;-70
2021/04/18 06:48:21;;;;;;;28.65;13.73;;;7.30;99.90;;;;;;4939256;28;20023;-69
2021/04/18 06:50:48;;;;;;;27.60;15.07;;;7.30;99.90;;;;;;4933993;28;20032;-69
2021/04/18 06:53:15;;;;;;;34.75;14.50;;;7.40;99.90;;;;;;4935165;28;20039;-69
2021/04/18 06:55:41;;;;;;;29.15;14.52;;;7.20;99.90;;;;;;4921476;28;20034;-69
2021/04/18 06:58:07;;;;;;;35.97;14.07;;;6.90;99.90;;;;;;4930471;28;20031;-72
2021/04/18 07:00:33;;;;;;;33.78;14.25;;;6.70;99.90;;;;;;4930787;28;20047;-70
2021/04/18 07:03:09;;;;;;;29.25;13.98;;;6.60;99.90;;;;;;4928125;28;20063;-70
2021/04/18 07:05:50;;;;;;;29.15;13.10;;;6.80;99.90;;;;;;4929787;28;20019;-69
2021/04/18 07:08:22;;;;;;;27.15;13.30;;;7.10;99.90;;;;;;4936106;28;20110;-71
2021/04/18 07:10:48;;;;;;;27.40;12.70;;;7.40;99.90;;;;;;4940604;28;20020;-70
2021/04/18 07:13:16;;;;;;;31.25;14.10;;;7.10;99.90;;;;;;4934362;28;20039;-70
2021/04/18 07:15:43;;;;;;;41.78;16.17;;;6.90;99.90;;;;;;4931564;28;20028;-70
2021/04/18 07:18:14;;;;;;;36.75;14.52;;;6.90;99.90;;;;;;4935523;28;20386;-68
2021/04/18 07:20:53;;;;;;;21.08;12.82;;;6.80;99.90;;;;;;4933422;28;20027;-70
2021/04/18 07:23:28;;;;;;;28.73;13.18;;;6.90;99.90;;;;;;4921548;28;20020;-71
2021/04/18 07:25:56;;;;;;;27.50;10.98;;;7.10;99.90;;;;;;4939390;28;20042;-68
2021/04/18 07:28:26;;;;;;;24.75;12.25;;;7.10;99.90;;;;;;4915482;28;20024;-71
2021/04/18 07:31:01;;;;;;;30.10;11.27;;;7.10;99.90;;;;;;4945249;28;20054;-71
2021/04/18 07:33:26;;;;;;;26.63;12.50;;;7.10;99.90;;;;;;4936652;28;20347;-70
2021/04/18 07:35:52;;;;;;;20.52;11.85;;;7.30;99.90;;;;;;4924126;28;20055;-69
2021/04/18 07:38:27;;;;;;;29.13;10.98;;;7.40;99.90;;;;;;4942566;28;20035;-70
2021/04/18 07:41:13;;;;;;;25.42;11.25;;;7.60;99.90;;;;;;4936741;28;20040;-69
2021/04/18 07:43:46;;;;;;;20.33;8.75;;;7.90;99.90;;;;;;4922261;28;20486;-71
2021/04/18 07:46:12;;;;;;;17.52;9.60;;;8.20;99.90;;;;;;4935269;28;20390;-69
2021/04/18 07:48:38;;;;;;;31.77;8.60;;;8.30;99.90;;;;;;4934165;28;20501;-69
2021/04/18 07:51:04;;;;;;;17.25;8.13;;;8.30;99.90;;;;;;4933082;28;20031;-71
2021/04/18 07:53:30;;;;;;;22.65;8.77;;;8.30;99.90;;;;;;4929577;28;20031;-69
2021/04/18 07:55:55;;;;;;;21.15;8.50;;;8.30;99.90;;;;;;4932673;28;20362;-71
2021/04/18 07:58:21;;;;;;;21.88;9.15;;;8.30;99.90;;;;;;4937118;28;20023;-70
2021/04/18 08:00:47;;;;;;;18.25;8.88;;;8.50;99.90;;;;;;4938209;28;20042;-68
2021/04/18 08:03:16;;;;;;;21.73;8.98;;;8.50;99.90;;;;;;4930406;28;20032;-69
2021/04/18 08:05:45;;;;;;;20.13;9.43;;;8.40;99.90;;;;;;4936841;28;20031;-69
2021/04/18 08:08:13;;;;;;;20.45;9.80;;;8.20;99.90;;;;;;4919567;28;20107;-70
2021/04/18 08:10:46;;;;;;;21.10;11.00;;;8.00;99.90;;;;;;4932253;28;20110;-69
2021/04/18 08:13:25;;;;;;;25.50;9.77;;;8.30;99.90;;;;;;4933619;28;20119;-69
2021/04/18 08:15:53;;;;;;;18.55;9.55;;;8.60;99.90;;;;;;4930083;28;20032;-68
2021/04/18 08:18:28;;;;;;;17.65;8.02;;;8.50;99.90;;;;;;4928513;28;20434;-71
2021/04/18 08:20:54;;;;;;;21.95;8.63;;;8.50;99.90;;;;;;4940651;28;20024;-69
2021/04/18 08:23:21;;;;;;;19.67;8.88;;;8.70;99.90;;;;;;4932425;28;20054;-69
2021/04/18 08:26:13;;;;;;;22.38;7.93;;;8.70;99.90;;;;;;4935407;28;20047;-71
2021/04/18 08:29:03;;;;;;;16.17;8.18;;;8.90;99.90;;;;;;4929521;28;20016;-70
2021/04/18 08:31:30;;;;;;;15.50;7.45;;;9.30;99.90;;;;;;4930595;28;20039;-72
2021/04/18 08:34:01;;;;;;;22.13;8.00;;;9.30;99.90;;;;;;4939834;28;20045;-70
2021/04/18 08:36:27;;;;;;;18.45;7.28;;;9.30;99.90;;;;;;4937921;28;20031;-73
2021/04/18 08:39:04;;;;;;;15.20;7.20;;;9.80;99.90;;;;;;4965791;28;20050;-72
2021/04/18 08:41:44;;;;;;;23.63;8.38;;;10.70;99.90;;;;;;4943166;28;20032;-71
2021/04/18 08:44:20;;;;;;;29.00;8.68;;;9.80;99.90;;;;;;4933808;28;20127;-68
2021/04/18 08:46:51;;;;;;;18.25;8.50;;;9.60;99.90;;;;;;4914097;28;20019;-71
2021/04/18 08:49:36;;;;;;;20.38;9.23;;;9.60;99.90;;;;;;4930431;28;20035;-72
2021/04/18 08:52:04;;;;;;;20.33;8.88;;;9.50;99.90;;;;;;4930291;28;20027;-69
2021/04/18 08:54:33;;;;;;;26.08;9.25;;;9.60;99.90;;;;;;4937305;28;20040;-70
2021/04/18 08:57:03;;;;;;;22.23;8.90;;;9.80;99.90;;;;;;4935604;28;20429;-71
2021/04/18 08:59:29;;;;;;;17.85;8.73;;;9.80;99.90;;;;;;4944767;28;20088;-71
2021/04/18 09:02:03;;;;;;;22.63;9.50;;;10.30;99.90;;;;;;4934778;28;20019;-70
2021/04/18 09:04:49;;;;;;;18.90;8.50;;;10.30;99.90;;;;;;4947242;28;20047;-72
2021/04/18 09:07:18;;;;;;;26.33;8.68;;;10.30;99.90;;;;;;4945264;28;20030;-70
2021/04/18 09:09:44;;;;;;;24.55;7.97;;;10.20;99.90;;;;;;4937036;28;20390;-70
2021/04/18 09:12:10;;;;;;;20.08;9.95;;;10.30;99.90;;;;;;4929993;28;20036;-71
2021/04/18 09:14:44;;;;;;;16.98;8.32;;;10.50;99.90;;;;;;4930601;28;20032;-70
2021/04/18 09:17:15;;;;;;;23.85;9.02;;;11.20;99.90;;;;;;4923824;28;20735;-70
2021/04/18 09:19:46;;;;;;;20.30;8.38;;;11.80;99.90;;;;;;4936998;28;20102;-68
2021/04/18 09:22:23;;;;;;;26.88;8.30;;;11.20;99.90;;;;;;4917633;28;20059;-71
2021/04/18 09:24:52;;;;;;;15.60;7.78;;;10.70;99.90;;;;;;4937314;28;20024;-68
2021/04/18 09:27:30;;;;;;;19.85;7.63;;;11.00;99.90;;;;;;4936171;28;20103;-68
2021/04/18 09:29:58;;;;;;;17.23;7.78;;;10.70;99.90;;;;;;4936838;28;20521;-71
2021/04/18 09:32:29;;;;;;;16.75;6.43;;;10.50;99.90;;;;;;4935209;28;20024;-70
2021/04/18 09:34:55;;;;;;;17.42;6.97;;;11.20;99.90;;;;;;4930062;28;20071;-70
2021/04/18 09:37:26;;;;;;;23.75;7.05;;;11.70;99.90;;;;;;4937492;28;20059;-69
2021/04/18 09:39:56;;;;;;;24.25;6.10;;;11.60;99.90;;;;;;4939627;28;20126;-70
2021/04/18 09:42:23;;;;;;;11.85;5.38;;;11.30;99.90;;;;;;4939682;28;20114;-71
2021/04/18 09:44:51;;;;;;;13.27;6.00;;;11.10;99.90;;;;;;4916744;28;20042;-69
2021/04/18 09:47:28;;;;;;;18.25;5.57;;;11.30;99.90;;;;;;4931540;28;20549;-69
2021/04/18 09:49:59;;;;;;;16.38;5.47;;;11.10;99.90;;;;;;4931202;28;20028;-71
2021/04/18 09:52:33;;;;;;;13.40;5.30;;;12.00;99.90;;;;;;4915050;28;20106;-71
2021/04/18 09:55:16;;;;;;;14.65;6.25;;;13.20;99.90;;;;;;4935355;28;20028;-71
2021/04/18 09:57:48;;;;;;;13.30;5.63;;;12.70;99.90;;;;;;4934735;28;20027;-72
2021/04/18 10:00:21;;;;;;;13.85;5.35;;;12.10;99.90;;;;;;4929746;28;20032;-72
2021/04/18 10:03:07;;;;;;;24.77;7.10;;;12.80;99.90;;;;;;4933489;28;20020;-69
2021/04/18 10:05:43;;;;;;;18.63;7.18;;;13.00;99.90;;;;;;4929241;28;20581;-71
2021/04/18 10:08:15;;;;;;;16.23;6.07;;;12.00;99.90;;;;;;4932980;28;20059;-72
2021/04/18 10:10:41;;;;;;;12.38;5.65;;;11.90;99.90;;;;;;4930270;28;20046;-70
2021/04/18 10:13:07;;;;;;;16.58;6.18;;;12.90;99.90;;;;;;4934177;28;20036;-71
2021/04/18 10:15:33;;;;;;;13.43;6.03;;;12.90;99.90;;;;;;4930517;28;20036;-68
2021/04/18 10:18:11;;;;;;;14.98;5.82;;;12.40;99.90;;;;;;4929705;28;20032;-71
2021/04/18 10:20:36;;;;;;;13.68;6.22;;;12.50;99.90;;;;;;4934364;28;20063;-70
2021/04/18 10:23:07;;;;;;;24.20;9.32;;;13.40;99.90;;;;;;4935116;28;20043;-72
2021/04/18 10:25:34;;;;;;;17.98;6.45;;;13.60;99.70;;;;;;4933729;28;20039;-70
2021/04/18 10:28:00;;;;;;;13.70;6.18;;;12.50;99.90;;;;;;4936546;28;20413;-71
2021/04/18 10:30:26;;;;;;;12.57;5.43;;;12.40;99.90;;;;;;4933062;28;20019;-71
2021/04/18 10:32:52;;;;;;;16.83;5.78;;;13.20;99.90;;;;;;4935732;28;20024;-70
2021/04/18 10:35:19;;;;;;;13.93;5.82;;;13.60;99.30;;;;;;4933064;28;20046;-69
2021/04/18 10:37:45;;;;;;;13.20;5.38;;;13.00;99.90;;;;;;4939236;28;20027;-72
2021/04/18 10:40:13;;;;;;;14.18;5.65;;;13.00;99.90;;;;;;4937058;28;20031;-69
2021/04/18 10:42:38;;;;;;;16.63;6.10;;;13.30;98.90;;;;;;4941952;28;20028;-70
2021/04/18 10:45:05;;;;;;;14.85;5.72;;;13.40;98.70;;;;;;4942285;28;20030;-69
2021/04/18 10:47:30;;;;;;;15.07;6.35;;;13.20;98.20;;;;;;4935051;28;20106;-67
2021/04/18 10:49:57;;;;;;;15.85;5.03;;;12.60;99.20;;;;;;4922628;28;20106;-71
2021/04/18 10:52:23;;;;;;;12.98;5.60;;;12.80;99.00;;;;;;4934773;28;20050;-71
2021/04/18 10:54:49;;;;;;;13.38;4.90;;;12.80;98.70;;;;;;4941042;28;20035;-70
2021/04/18 10:57:14;;;;;;;14.43;5.38;;;13.20;98.00;;;;;;4943871;28;20097;-71
2021/04/18 10:59:40;;;;;;;14.32;4.90;;;13.10;97.50;;;;;;4926812;28;20046;-71
2021/04/18 11:02:06;;;;;;;13.02;5.07;;;13.60;96.30;;;;;;4923204;28;20031;-72
2021/04/18 11:04:31;;;;;;;9.18;5.13;;;14.00;94.00;;;;;;4938059;28;20023;-69
2021/04/18 11:06:57;;;;;;;11.30;4.93;;;13.60;95.20;;;;;;4929903;28;20354;-70
2021/04/18 11:09:22;;;;;;;14.05;5.60;;;13.10;96.20;;;;;;4923559;28;20138;-69
2021/04/18 11:11:48;;;;;;;12.55;5.75;;;12.80;97.50;;;;;;4935953;28;20059;-71
2021/04/18 11:14:13;;;;;;;9.98;5.13;;;12.80;97.20;;;;;;4937891;28;20125;-70
2021/04/18 11:16:39;;;;;;;10.80;4.90;;;13.20;96.80;;;;;;4937131;28;20437;-69
2021/04/18 11:19:05;;;;;;;9.57;4.32;;;13.80;94.70;;;;;;4936510;28;20022;-69
2021/04/18 11:21:31;;;;;;;10.70;4.95;;;13.60;93.90;;;;;;4937806;28;20390;-73
2021/04/18 11:23:57;;;;;;;9.85;4.78;;;13.60;92.80;;;;;;4932441;28;20348;-71
2021/04/18 11:26:26;;;;;;;9.65;5.05;;;13.50;91.30;;;;;;4933150;28;20490;-68
2021/04/18 11:28:52;;;;;;;11.65;4.53;;;13.40;92.30;;;;;;4920669;28;20027;-70
2021/04/18 11:31:18;;;;;;;11.07;4.80;;;13.70;92.50;;;;;;4917616;28;20582;-70
2021/04/18 11:33:44;;;;;;;12.95;5.40;;;14.70;91.10;;;;;;4941832;28;20039;-69
2021/04/18 11:36:10;;;;;;;12.45;5.07;;;14.90;91.00;;;;;;4935848;28;20102;-67
2021/04/18 11:38:36;;;;;;;12.15;5.13;;;14.10;92.10;;;;;;4939721;28;20517;-70
2021/04/18 11:41:02;;;;;;;12.55;5.68;;;14.40;92.10;;;;;;4939334;28;20456;-69
2021/04/18 11:43:27;;;;;;;10.90;5.38;;;14.20;92.00;;;;;;4972928;22;20046;-66
2021/04/18 11:45:55;;;;;;;8.13;4.28;;;14.30;90.80;;;;;;4978277;28;20035;-68
2021/04/18 11:48:21;;;;;;;18.00;6.45;;;14.20;91.20;;;;;;4957702;28;20498;-66
2021/04/18 11:50:48;;;;;;;10.38;4.47;;;13.60;91.70;;;;;;4954298;28;20023;-67
2021/04/18 11:53:13;;;;;;;14.48;4.47;;;13.80;91.40;;;;;;4975860;28;20515;-66
2021/04/18 11:55:39;;;;;;;15.43;4.63;;;14.30;91.30;;;;;;4975464;28;20034;-67
2021/04/18 11:58:05;;;;;;;10.15;5.18;;;15.10;90.50;;;;;;4939825;28;20023;-67
2021/04/18 12:00:32;;;;;;;17.35;4.80;;;15.80;86.10;;;;;;4975110;28;20022;-65
2021/04/18 12:02:58;;;;;;;10.35;4.80;;;15.40;84.40;;;;;;4968180;28;20014;-66
2021/04/18 12:05:24;;;;;;;8.25;4.40;;;14.90;86.90;;;;;;4956507;28;20029;-66
2021/04/18 12:07:50;;;;;;;13.50;5.28;;;15.20;87.90;;;;;;4960861;28;20020;-67
2021/04/18 12:10:15;;;;;;;11.57;4.82;;;15.70;84.10;;;;;;4959043;28;20024;-66
2021/04/18 12:12:41;;;;;;;13.98;4.80;;;16.00;82.80;;;;;;4955220;28;20489;-67
2021/04/18 12:15:09;;;;;;;8.65;4.95;;;16.20;81.50;;;;;;4956681;28;20036;-67
2021/04/18 12:17:36;;;;;;;15.40;5.55;;;15.40;83.40;;;;;;4959662;28;20046;-66
2021/04/18 12:20:04;;;;;;;7.38;5.00;;;15.10;89.10;;;;;;4941801;28;20063;-66
2021/04/18 12:22:31;;;;;;;13.63;5.85;;;15.00;85.90;;;;;;4957018;28;20454;-67
2021/04/18 12:24:56;;;;;;;16.20;5.93;;;14.90;86.90;;;;;;4959929;28;20023;-67
2021/04/18 12:27:22;;;;;;;8.65;4.82;;;14.70;87.70;;;;;;4963261;28;20099;-66
2021/04/18 12:29:48;;;;;;;11.43;4.65;;;15.10;84.70;;;;;;4966814;28;20042;-65
2021/04/18 12:32:13;;;;;;;8.50;4.72;;;15.10;83.80;;;;;;4954488;28;20035;-66
2021/04/18 12:34:39;;;;;;;10.68;4.90;;;14.90;85.20;;;;;;4954088;28;20460;-65
2021/04/18 12:37:04;;;;;;;7.97;5.00;;;15.30;84.60;;;;;;4954837;28;20078;-67
2021/04/18 12:39:31;;;;;;;10.45;4.95;;;15.60;84.00;;;;;;4952632;28;20022;-66